sensor_id;sensor_type;location;lat;lon;timestamp;pressure;altitude;pressure_sealevel;temperature;humidity
11987;BME280;6053;51.382;6.768;2022-10-31T00:01:30;101699.41;;;19.19;100.00
11987;BME280;6053;51.382;6.768;2022-10-31T00:03:59;101703.88;;;19.20;100.00
11987;BME280;6053;51.382;6.768;2022-10-31T00:06:27;101696.75;;;19.07;100.00
11987;BME280;6053;51.382;6.768;2022-10-31T00:08:58;101695.09;;;19.06;100.00
11987;BME280;6053;51.382;6.768;2022-10-31T00:11:27;101697.56;;;19.02;100.00
11987;BME280;6053;51.382;6.768;2022-10-31T00:13:57;101705.91;;;18.97;100.00
11987;BME280;6053;51.382;6.768;2022-10-31T00:16:27;101699.84;;;19.05;100.00
11987;BME280;6053;51.382;6.768;2022-10-31T00:18:58;101690.88;;;19.03;100.00
11987;BME280;6053;51.382;6.768;2022-10-31T00:21:28;101697.28;;;19.04;100.00
11987;BME280;6053;51.382;6.768;2022-10-31T00:23:57;101692.53;;;19.04;100.00
11987;BME280;6053;51.382;6.768;2022-10-31T00:26:26;101697.88;;;19.06;100.00
11987;BME280;6053;51.382;6.768;2022-10-31T00:28:56;101695.56;;;18.98;100.00
11987;BME280;6053;51.382;6.768;2022-10-31T00:31:25;101708.75;;;19.02;100.00
11987;BME280;6053;51.382;6.768;2022-10-31T00:33:53;101699.84;;;19.05;100.00
11987;BME280;6053;51.382;6.768;2022-10-31T00:36:21;101697.03;;;19.05;100.00
11987;BME280;6053;51.382;6.768;2022-10-31T00:38:50;101707.94;;;19.07;100.00
11987;BME280;6053;51.382;6.768;2022-10-31T00:41:18;101703.78;;;19.10;100.00
11987;BME280;6053;51.382;6.768;2022-10-31T00:43:46;101705.69;;;19.04;100.00
11987;BME280;6053;51.382;6.768;2022-10-31T00:46:16;101705.44;;;19.05;100.00
11987;BME280;6053;51.382;6.768;2022-10-31T00:48:44;101699.00;;;19.05;100.00
11987;BME280;6053;51.382;6.768;2022-10-31T00:51:12;101698.34;;;18.98;100.00
11987;BME280;6053;51.382;6.768;2022-10-31T00:53:40;101699.84;;;19.05;100.00
11987;BME280;6053;51.382;6.768;2022-10-31T00:56:08;101698.19;;;19.10;100.00
11987;BME280;6053;51.382;6.768;2022-10-31T00:58:37;101706.88;;;19.08;100.00
11987;BME280;6053;51.382;6.768;2022-10-31T01:01:05;101717.69;;;18.99;100.00
11987;BME280;6053;51.382;6.768;2022-10-31T01:03:35;101707.34;;;19.00;100.00
11987;BME280;6053;51.382;6.768;2022-10-31T01:06:08;101701.50;;;19.01;100.00
11987;BME280;6053;51.382;6.768;2022-10-31T01:08:38;101706.88;;;19.08;100.00
11987;BME280;6053;51.382;6.768;2022-10-31T01:11:10;101695.09;;;19.06;100.00
11987;BME280;6053;51.382;6.768;2022-10-31T01:13:38;101702.84;;;18.99;100.00
11987;BME280;6053;51.382;6.768;2022-10-31T01:16:10;101714.50;;;18.91;100.00
11987;BME280;6053;51.382;6.768;2022-10-31T01:18:40;101716.78;;;18.94;100.00
11987;BME280;6053;51.382;6.768;2022-10-31T01:21:10;101725.22;;;18.99;100.00
11987;BME280;6053;51.382;6.768;2022-10-31T01:23:39;101727.19;;;18.98;100.00
11987;BME280;6053;51.382;6.768;2022-10-31T01:26:10;101726.06;;;18.99;100.00
11987;BME280;6053;51.382;6.768;2022-10-31T01:28:44;101723.28;;;18.99;100.00
11987;BME280;6053;51.382;6.768;2022-10-31T01:31:13;101711.41;;;18.87;100.00
11987;BME280;6053;51.382;6.768;2022-10-31T01:33:42;101705.81;;;18.87;100.00
11987;BME280;6053;51.382;6.768;2022-10-31T01:36:14;101695.75;;;18.86;100.00
11987;BME280;6053;51.382;6.768;2022-10-31T01:38:43;101700.75;;;18.84;100.00
11987;BME280;6053;51.382;6.768;2022-10-31T01:41:13;101688.91;;;18.72;100.00
11987;BME280;6053;51.382;6.768;2022-10-31T01:43:45;101703.44;;;18.74;100.00
11987;BME280;6053;51.382;6.768;2022-10-31T01:46:17;101701.34;;;18.86;100.00
11987;BME280;6053;51.382;6.768;2022-10-31T01:48:49;101703.06;;;18.92;100.00
11987;BME280;6053;51.382;6.768;2022-10-31T01:51:20;101695.75;;;18.86;100.00
11987;BME280;6053;51.382;6.768;2022-10-31T01:53:51;101692.84;;;18.76;100.00
11987;BME280;6053;51.382;6.768;2022-10-31T01:56:22;101680.69;;;18.65;100.00
11987;BME280;6053;51.382;6.768;2022-10-31T01:58:50;101686.00;;;18.67;100.00
11987;BME280;6053;51.382;6.768;2022-10-31T02:01:19;101688.56;;;18.68;100.00
11987;BME280;6053;51.382;6.768;2022-10-31T02:03:49;101692.75;;;18.71;100.00
11987;BME280;6053;51.382;6.768;2022-10-31T02:06:27;101681.00;;;18.69;100.00
11987;BME280;6053;51.382;6.768;2022-10-31T02:09:00;101681.84;;;18.69;100.00
11987;BME280;6053;51.382;6.768;2022-10-31T02:11:31;101688.03;;;18.71;100.00
11987;BME280;6053;51.382;6.768;2022-10-31T02:14:02;101688.28;;;18.70;100.00
11987;BME280;6053;51.382;6.768;2022-10-31T02:16:30;101693.88;;;18.70;100.00
11987;BME280;6053;51.382;6.768;2022-10-31T02:19:00;101690.06;;;18.76;100.00
11987;BME280;6053;51.382;6.768;2022-10-31T02:21:34;101693.16;;;18.79;100.00
11987;BME280;6053;51.382;6.768;2022-10-31T02:24:40;101690.09;;;18.81;100.00
11987;BME280;6053;51.382;6.768;2022-10-31T02:30:38;101694.63;;;18.87;100.00
11987;BME280;6053;51.382;6.768;2022-10-31T02:33:20;101694.59;;;18.82;100.00
11987;BME280;6053;51.382;6.768;2022-10-31T02:36:01;101680.09;;;18.63;100.00
11987;BME280;6053;51.382;6.768;2022-10-31T02:38:42;101693.81;;;18.65;100.00
11987;BME280;6053;51.382;6.768;2022-10-31T02:41:23;101690.22;;;18.69;100.00
11987;BME280;6053;51.382;6.768;2022-10-31T02:44:02;101691.91;;;18.70;100.00
11987;BME280;6053;51.382;6.768;2022-10-31T02:46:39;101681.25;;;18.67;100.00
11987;BME280;6053;51.382;6.768;2022-10-31T02:49:24;101689.63;;;18.67;100.00
11987;BME280;6053;51.382;6.768;2022-10-31T02:51:55;101689.31;;;18.64;100.00
11987;BME280;6053;51.382;6.768;2022-10-31T02:54:26;101691.28;;;18.63;100.00
11987;BME280;6053;51.382;6.768;2022-10-31T02:56:58;101693.28;;;18.68;100.00
11987;BME280;6053;51.382;6.768;2022-10-31T02:59:28;101702.09;;;18.54;100.00
11987;BME280;6053;51.382;6.768;2022-10-31T03:02:12;101691.44;;;18.51;100.00
11987;BME280;6053;51.382;6.768;2022-10-31T03:05:22;101687.78;;;18.51;100.00
11987;BME280;6053;51.382;6.768;2022-10-31T03:08:01;101683.59;;;18.48;100.00
11987;BME280;6053;51.382;6.768;2022-10-31T03:10:38;101685.47;;;18.43;100.00
11987;BME280;6053;51.382;6.768;2022-10-31T03:13:12;101685.47;;;18.43;100.00
11987;BME280;6053;51.382;6.768;2022-10-31T03:15:45;101676.28;;;18.47;100.00
11987;BME280;6053;51.382;6.768;2022-10-31T03:18:24;101680.19;;;18.46;100.00
11987;BME280;6053;51.382;6.768;2022-10-31T03:20:59;101681.03;;;18.47;100.00
11987;BME280;6053;51.382;6.768;2022-10-31T03:23:30;101683.91;;;18.52;100.00
11987;BME280;6053;51.382;6.768;2022-10-31T03:26:01;101687.75;;;18.46;100.00
11987;BME280;6053;51.382;6.768;2022-10-31T03:28:41;101688.25;;;18.43;100.00
11987;BME280;6053;51.382;6.768;2022-10-31T03:31:15;101680.19;;;18.46;100.00
11987;BME280;6053;51.382;6.768;2022-10-31T03:33:45;101687.44;;;18.42;100.00
11987;BME280;6053;51.382;6.768;2022-10-31T03:36:16;101689.69;;;18.45;100.00
11987;BME280;6053;51.382;6.768;2022-10-31T03:38:46;101691.56;;;18.40;100.00
11987;BME280;6053;51.382;6.768;2022-10-31T03:41:20;101690.22;;;18.42;100.00
11987;BME280;6053;51.382;6.768;2022-10-31T03:43:56;101682.34;;;18.39;100.00
11987;BME280;6053;51.382;6.768;2022-10-31T03:46:27;101686.19;;;18.33;100.00
11987;BME280;6053;51.382;6.768;2022-10-31T03:48:55;101686.19;;;18.33;100.00
11987;BME280;6053;51.382;6.768;2022-10-31T03:51:30;101684.56;;;18.37;100.00
11987;BME280;6053;51.382;6.768;2022-10-31T03:54:08;101696.56;;;18.37;100.00
11987;BME280;6053;51.382;6.768;2022-10-31T03:56:44;101689.94;;;18.44;100.00
11987;BME280;6053;51.382;6.768;2022-10-31T03:59:21;101690.78;;;18.44;100.00
11987;BME280;6053;51.382;6.768;2022-10-31T04:01:56;101683.28;;;18.45;100.00
11987;BME280;6053;51.382;6.768;2022-10-31T04:04:26;101684.09;;;18.45;100.00
11987;BME280;6053;51.382;6.768;2022-10-31T04:06:59;101681.03;;;18.47;100.00
11987;BME280;6053;51.382;6.768;2022-10-31T04:09:30;101688.59;;;18.46;100.00
11987;BME280;6053;51.382;6.768;2022-10-31T04:12:01;101683.00;;;18.46;100.00
11987;BME280;6053;51.382;6.768;2022-10-31T04:14:33;101681.56;;;18.44;100.00
11987;BME280;6053;51.382;6.768;2022-10-31T04:17:03;101680.16;;;18.41;100.00
11987;BME280;6053;51.382;6.768;2022-10-31T04:19:33;101678.44;;;18.40;100.00
11987;BME280;6053;51.382;6.768;2022-10-31T04:22:02;101672.81;;;18.35;100.00
11987;BME280;6053;51.382;6.768;2022-10-31T04:24:31;101675.28;;;18.31;100.00
11987;BME280;6053;51.382;6.768;2022-10-31T04:26:59;101675.50;;;18.25;100.00
11987;BME280;6053;51.382;6.768;2022-10-31T04:29:27;101676.53;;;18.19;100.00
11987;BME280;6053;51.382;6.768;2022-10-31T04:31:55;101675.50;;;18.25;100.00
11987;BME280;6053;51.382;6.768;2022-10-31T04:34:23;101677.78;;;18.28;100.00
11987;BME280;6053;51.382;6.768;2022-10-31T04:36:52;101672.44;;;18.26;100.00
11987;BME280;6053;51.382;6.768;2022-10-31T04:39:21;101668.00;;;18.30;100.00
11987;BME280;6053;51.382;6.768;2022-10-31T04:41:52;101675.03;;;18.33;100.00
11987;BME280;6053;51.382;6.768;2022-10-31T04:44:21;101673.91;;;18.34;100.00
11987;BME280;6053;51.382;6.768;2022-10-31T04:46:49;101675.84;;;18.33;100.00
11987;BME280;6053;51.382;6.768;2022-10-31T04:49:17;101673.66;;;18.35;100.00
11987;BME280;6053;51.382;6.768;2022-10-31T04:51:45;101676.97;;;18.32;100.00
11987;BME280;6053;51.382;6.768;2022-10-31T04:54:13;101680.28;;;18.29;100.00
11987;BME280;6053;51.382;6.768;2022-10-31T04:56:43;101680.56;;;18.28;100.00
11987;BME280;6053;51.382;6.768;2022-10-31T04:59:11;101676.91;;;18.27;100.00
11987;BME280;6053;51.382;6.768;2022-10-31T05:01:39;101674.91;;;18.23;100.00
11987;BME280;6053;51.382;6.768;2022-10-31T05:04:08;101664.56;;;18.23;100.00
11987;BME280;6053;51.382;6.768;2022-10-31T05:06:36;101658.16;;;18.23;100.00
11987;BME280;6053;51.382;6.768;2022-10-31T05:09:04;101658.94;;;18.18;100.00
11987;BME280;6053;51.382;6.768;2022-10-31T05:11:32;101653.88;;;18.15;100.00
11987;BME280;6053;51.382;6.768;2022-10-31T05:14:02;101652.44;;;18.12;100.00
11987;BME280;6053;51.382;6.768;2022-10-31T05:16:30;101651.84;;;18.10;100.00
11987;BME280;6053;51.382;6.768;2022-10-31T05:18:58;101654.13;;;18.13;100.00
11987;BME280;6053;51.382;6.768;2022-10-31T05:21:27;101649.72;;;18.18;100.00
11987;BME280;6053;51.382;6.768;2022-10-31T05:23:55;101638.00;;;18.21;100.00
11987;BME280;6053;51.382;6.768;2022-10-31T05:26:24;101634.56;;;18.13;100.00
11987;BME280;6053;51.382;6.768;2022-10-31T05:28:52;101645.41;;;18.10;100.00
11987;BME280;6053;51.382;6.768;2022-10-31T05:31:21;101639.28;;;18.08;100.00
11987;BME280;6053;51.382;6.768;2022-10-31T05:33:50;101642.63;;;18.10;100.00
11987;BME280;6053;51.382;6.768;2022-10-31T05:36:18;101646.53;;;18.09;100.00
11987;BME280;6053;51.382;6.768;2022-10-31T05:38:46;101656.06;;;18.13;100.00
11987;BME280;6053;51.382;6.768;2022-10-31T05:41:14;101648.28;;;18.15;100.00
11987;BME280;6053;51.382;6.768;2022-10-31T05:43:42;101648.72;;;18.07;100.00
11987;BME280;6053;51.382;6.768;2022-10-31T05:46:10;101642.63;;;18.10;100.00
11987;BME280;6053;51.382;6.768;2022-10-31T05:48:40;101649.06;;;18.10;100.00
11987;BME280;6053;51.382;6.768;2022-10-31T05:51:08;101644.91;;;18.13;100.00
11987;BME280;6053;51.382;6.768;2022-10-31T05:53:36;101644.06;;;18.12;100.00
11987;BME280;6053;51.382;6.768;2022-10-31T05:56:05;101639.31;;;18.13;100.00
11987;BME280;6053;51.382;6.768;2022-10-31T05:58:33;101626.72;;;18.10;100.00
11987;BME280;6053;51.382;6.768;2022-10-31T06:01:01;101637.84;;;18.05;100.00
11987;BME280;6053;51.382;6.768;2022-10-31T06:03:29;101641.16;;;18.02;100.00
11987;BME280;6053;51.382;6.768;2022-10-31T06:05:59;101634.97;;;18.00;100.00
11987;BME280;6053;51.382;6.768;2022-10-31T06:08:27;101630.81;;;18.03;100.00
11987;BME280;6053;51.382;6.768;2022-10-31T06:10:55;101631.66;;;18.03;100.00
11987;BME280;6053;51.382;6.768;2022-10-31T06:13:23;101632.50;;;18.04;100.00
11987;BME280;6053;51.382;6.768;2022-10-31T06:15:52;101619.97;;;18.06;100.00
11987;BME280;6053;51.382;6.768;2022-10-31T06:18:20;101629.16;;;18.02;100.00
11987;BME280;6053;51.382;6.768;2022-10-31T06:20:48;101628.22;;;17.96;100.00
11987;BME280;6053;51.382;6.768;2022-10-31T06:23:18;101631.84;;;17.97;100.00
11987;BME280;6053;51.382;6.768;2022-10-31T06:25:49;101634.09;;;17.95;100.00
11987;BME280;6053;51.382;6.768;2022-10-31T06:28:17;101639.06;;;17.93;100.00
11987;BME280;6053;51.382;6.768;2022-10-31T06:30:46;101634.31;;;17.93;100.00
11987;BME280;6053;51.382;6.768;2022-10-31T06:33:14;101643.31;;;17.95;100.00
11987;BME280;6053;51.382;6.768;2022-10-31T06:35:45;101637.72;;;17.95;100.00
11987;BME280;6053;51.382;6.768;2022-10-31T06:38:14;101638.56;;;17.96;100.00
11987;BME280;6053;51.382;6.768;2022-10-31T06:40:44;101636.94;;;18.00;100.00
11987;BME280;6053;51.382;6.768;2022-10-31T06:43:12;101642.50;;;18.00;100.00
11987;BME280;6053;51.382;6.768;2022-10-31T06:45:41;101641.66;;;17.99;100.00
11987;BME280;6053;51.382;6.768;2022-10-31T06:48:09;101637.44;;;17.97;100.00
11987;BME280;6053;51.382;6.768;2022-10-31T06:50:43;101634.66;;;17.97;100.00
11987;BME280;6053;51.382;6.768;2022-10-31T06:53:12;101628.31;;;18.01;100.00
11987;BME280;6053;51.382;6.768;2022-10-31T06:55:41;101641.94;;;17.98;100.00
11987;BME280;6053;51.382;6.768;2022-10-31T06:58:11;101655.03;;;17.97;100.00
11987;BME280;6053;51.382;6.768;2022-10-31T07:00:39;101661.22;;;17.99;100.00
11987;BME280;6053;51.382;6.768;2022-10-31T07:03:11;101663.75;;;18.01;100.00
11987;BME280;6053;51.382;6.768;2022-10-31T07:05:40;101656.78;;;18.03;100.00
11987;BME280;6053;51.382;6.768;2022-10-31T07:08:10;101646.59;;;17.92;100.00
11987;BME280;6053;51.382;6.768;2022-10-31T07:10:41;101642.47;;;17.95;100.00
11987;BME280;6053;51.382;6.768;2022-10-31T07:13:13;101653.34;;;17.96;100.00
11987;BME280;6053;51.382;6.768;2022-10-31T07:15:42;101652.00;;;17.99;100.00
11987;BME280;6053;51.382;6.768;2022-10-31T07:18:12;101655.91;;;17.98;100.00
11987;BME280;6053;51.382;6.768;2022-10-31T07:20:40;101657.81;;;17.97;100.00
11987;BME280;6053;51.382;6.768;2022-10-31T07:23:10;101649.53;;;18.02;100.00
11987;BME280;6053;51.382;6.768;2022-10-31T07:25:38;101652.84;;;17.99;100.00
11987;BME280;6053;51.382;6.768;2022-10-31T07:28:07;101650.03;;;17.99;100.00
11987;BME280;6053;51.382;6.768;2022-10-31T07:30:37;101658.41;;;17.99;100.00
11987;BME280;6053;51.382;6.768;2022-10-31T07:33:06;101661.81;;;18.01;100.00
11987;BME280;6053;51.382;6.768;2022-10-31T07:35:34;101660.19;;;18.05;100.00
11987;BME280;6053;51.382;6.768;2022-10-31T07:38:13;101652.38;;;18.07;100.00
11987;BME280;6053;51.382;6.768;2022-10-31T07:40:42;101649.38;;;18.14;100.00
11987;BME280;6053;51.382;6.768;2022-10-31T07:43:11;101649.97;;;18.16;100.00
11987;BME280;6053;51.382;6.768;2022-10-31T07:45:42;101659.50;;;18.20;100.00
11987;BME280;6053;51.382;6.768;2022-10-31T07:48:10;101662.09;;;18.27;100.00
11987;BME280;6053;51.382;6.768;2022-10-31T07:50:38;101664.38;;;18.30;100.00
11987;BME280;6053;51.382;6.768;2022-10-31T07:53:09;101668.63;;;18.37;100.00
11987;BME280;6053;51.382;6.768;2022-10-31T07:55:37;101664.56;;;18.45;100.00
11987;BME280;6053;51.382;6.768;2022-10-31T07:58:09;101662.06;;;18.49;100.00
11987;BME280;6053;51.382;6.768;2022-10-31T08:00:39;101666.72;;;18.38;100.00
11987;BME280;6053;51.382;6.768;2022-10-31T08:03:12;101660.91;;;18.45;100.00
11987;BME280;6053;51.382;6.768;2022-10-31T08:05:41;101662.97;;;18.54;100.00
11987;BME280;6053;51.382;6.768;2022-10-31T08:08:11;101661.91;;;18.60;100.00
11987;BME280;6053;51.382;6.768;2022-10-31T08:10:40;101665.66;;;18.71;100.00
11987;BME280;6053;51.382;6.768;2022-10-31T08:13:11;101665.78;;;18.81;100.00
11987;BME280;6053;51.382;6.768;2022-10-31T08:15:39;101672.78;;;18.84;100.00
11987;BME280;6053;51.382;6.768;2022-10-31T08:18:13;101668.38;;;18.88;100.00
11987;BME280;6053;51.382;6.768;2022-10-31T08:20:43;101669.78;;;18.91;100.00
11987;BME280;6053;51.382;6.768;2022-10-31T08:23:13;101665.47;;;18.78;100.00
11987;BME280;6053;51.382;6.768;2022-10-31T08:25:41;101662.69;;;18.78;100.00
11987;BME280;6053;51.382;6.768;2022-10-31T08:28:11;101662.50;;;18.90;100.00
11987;BME280;6053;51.382;6.768;2022-10-31T08:30:40;101657.50;;;18.92;100.00
11987;BME280;6053;51.382;6.768;2022-10-31T08:33:13;101667.06;;;19.01;100.00
11987;BME280;6053;51.382;6.768;2022-10-31T08:35:41;101661.25;;;19.07;100.00
11987;BME280;6053;51.382;6.768;2022-10-31T08:38:11;101654.78;;;19.02;100.00
11987;BME280;6053;51.382;6.768;2022-10-31T08:40:40;101654.47;;;18.98;100.00
11987;BME280;6053;51.382;6.768;2022-10-31T08:43:12;101653.75;;;18.81;100.00
11987;BME280;6053;51.382;6.768;2022-10-31T08:45:42;101651.31;;;18.90;100.00
11987;BME280;6053;51.382;6.768;2022-10-31T08:48:14;101644.50;;;18.75;100.00
11987;BME280;6053;51.382;6.768;2022-10-31T08:50:44;101655.03;;;19.00;100.00
11987;BME280;6053;51.382;6.768;2022-10-31T08:53:14;101648.34;;;19.01;100.00
11987;BME280;6053;51.382;6.768;2022-10-31T08:55:45;101645.34;;;19.08;100.00
11987;BME280;6053;51.382;6.768;2022-10-31T08:58:15;101638.47;;;19.26;100.00
11987;BME280;6053;51.382;6.768;2022-10-31T09:00:44;101637.72;;;19.41;100.00
11987;BME280;6053;51.382;6.768;2022-10-31T09:03:17;101637.19;;;19.44;100.00
11987;BME280;6053;51.382;6.768;2022-10-31T09:05:45;101644.50;;;19.50;100.00
11987;BME280;6053;51.382;6.768;2022-10-31T09:08:14;101643.53;;;19.71;100.00
11987;BME280;6053;51.382;6.768;2022-10-31T09:10:43;101633.25;;;19.82;100.00
11987;BME280;6053;51.382;6.768;2022-10-31T09:13:13;101630.44;;;19.87;100.00
11987;BME280;6053;51.382;6.768;2022-10-31T09:15:44;101629.31;;;19.88;100.00
11987;BME280;6053;51.382;6.768;2022-10-31T09:18:16;101620.09;;;19.88;100.00
11987;BME280;6053;51.382;6.768;2022-10-31T09:20:46;101625.44;;;19.94;100.00
11987;BME280;6053;51.382;6.768;2022-10-31T09:23:16;101614.78;;;19.91;100.00
11987;BME280;6053;51.382;6.768;2022-10-31T09:25:46;101617.69;;;20.17;100.00
11987;BME280;6053;51.382;6.768;2022-10-31T09:28:19;101609.81;;;20.14;100.00
11987;BME280;6053;51.382;6.768;2022-10-31T09:30:48;101604.81;;;20.31;100.00
11987;BME280;6053;51.382;6.768;2022-10-31T09:33:19;101608.69;;;20.15;100.00
11987;BME280;6053;51.382;6.768;2022-10-31T09:35:48;101601.75;;;20.38;100.00
11987;BME280;6053;51.382;6.768;2022-10-31T09:38:18;101595.81;;;20.14;100.00
11987;BME280;6053;51.382;6.768;2022-10-31T09:40:51;101582.38;;;20.21;100.00
11987;BME280;6053;51.382;6.768;2022-10-31T09:43:29;101590.81;;;20.36;100.00
11987;BME280;6053;51.382;6.768;2022-10-31T09:46:06;101580.50;;;20.52;100.00
11987;BME280;6053;51.382;6.768;2022-10-31T09:48:50;101578.84;;;20.56;100.00
11987;BME280;6053;51.382;6.768;2022-10-31T09:51:28;101575.19;;;20.51;100.00
11987;BME280;6053;51.382;6.768;2022-10-31T09:54:04;101571.53;;;20.76;100.00
11987;BME280;6053;51.382;6.768;2022-10-31T09:56:33;101569.25;;;21.18;100.00
11987;BME280;6053;51.382;6.768;2022-10-31T09:59:05;101569.75;;;21.51;100.00
11987;BME280;6053;51.382;6.768;2022-10-31T10:01:45;101568.16;;;21.89;100.00
11987;BME280;6053;51.382;6.768;2022-10-31T10:04:37;101560.91;;;22.33;98.94
11987;BME280;6053;51.382;6.768;2022-10-31T10:07:16;101559.06;;;22.18;99.60
11987;BME280;6053;51.382;6.768;2022-10-31T10:09:47;101555.63;;;22.26;97.18
11987;BME280;6053;51.382;6.768;2022-10-31T10:12:37;101552.75;;;20.71;100.00
11987;BME280;6053;51.382;6.768;2022-10-31T10:15:35;101551.38;;;19.65;100.00
11987;BME280;6053;51.382;6.768;2022-10-31T10:18:17;101554.16;;;20.63;100.00
11987;BME280;6053;51.382;6.768;2022-10-31T10:21:03;101554.63;;;21.42;100.00
11987;BME280;6053;51.382;6.768;2022-10-31T10:23:50;101552.28;;;21.64;100.00
11987;BME280;6053;51.382;6.768;2022-10-31T10:26:29;101557.28;;;21.78;100.00
11987;BME280;6053;51.382;6.768;2022-10-31T10:29:29;101548.88;;;21.73;100.00
11987;BME280;6053;51.382;6.768;2022-10-31T10:32:05;101543.03;;;21.64;100.00
11987;BME280;6053;51.382;6.768;2022-10-31T10:34:43;101537.31;;;21.79;100.00
11987;BME280;6053;51.382;6.768;2022-10-31T10:37:23;101531.88;;;21.38;100.00
11987;BME280;6053;51.382;6.768;2022-10-31T10:39:59;101523.13;;;21.55;100.00
11987;BME280;6053;51.382;6.768;2022-10-31T10:42:31;101528.94;;;21.69;100.00
11987;BME280;6053;51.382;6.768;2022-10-31T10:45:19;101516.00;;;21.78;100.00
11987;BME280;6053;51.382;6.768;2022-10-31T10:48:13;101515.53;;;21.61;100.00
11987;BME280;6053;51.382;6.768;2022-10-31T10:50:47;101506.31;;;22.00;100.00
11987;BME280;6053;51.382;6.768;2022-10-31T10:53:34;101508.09;;;21.85;100.00
11987;BME280;6053;51.382;6.768;2022-10-31T10:56:14;101498.38;;;22.17;100.00
11987;BME280;6053;51.382;6.768;2022-10-31T10:58:43;101495.75;;;22.26;100.00
11987;BME280;6053;51.382;6.768;2022-10-31T11:01:14;101480.78;;;22.35;100.00
11987;BME280;6053;51.382;6.768;2022-10-31T11:03:42;101477.41;;;22.39;100.00
11987;BME280;6053;51.382;6.768;2022-10-31T11:06:18;101466.47;;;21.93;100.00
11987;BME280;6053;51.382;6.768;2022-10-31T11:08:50;101454.22;;;21.78;100.00
11987;BME280;6053;51.382;6.768;2022-10-31T11:11:25;101449.59;;;21.98;100.00
11987;BME280;6053;51.382;6.768;2022-10-31T11:14:04;101452.88;;;21.65;100.00
11987;BME280;6053;51.382;6.768;2022-10-31T11:16:37;101450.47;;;19.19;100.00
11987;BME280;6053;51.382;6.768;2022-10-31T11:19:20;101454.28;;;19.70;100.00
11987;BME280;6053;51.382;6.768;2022-10-31T11:21:49;101451.50;;;20.88;100.00
11987;BME280;6053;51.382;6.768;2022-10-31T11:24:23;101447.63;;;20.43;100.00
11987;BME280;6053;51.382;6.768;2022-10-31T11:27:15;101457.00;;;21.24;100.00
11987;BME280;6053;51.382;6.768;2022-10-31T11:29:44;101445.72;;;21.34;100.00
11987;BME280;6053;51.382;6.768;2022-10-31T11:32:20;101450.66;;;21.62;100.00
11987;BME280;6053;51.382;6.768;2022-10-31T11:34:52;101446.09;;;21.72;100.00
11987;BME280;6053;51.382;6.768;2022-10-31T11:37:24;101441.88;;;22.13;100.00
11987;BME280;6053;51.382;6.768;2022-10-31T11:39:57;101430.06;;;22.51;100.00
11987;BME280;6053;51.382;6.768;2022-10-31T11:42:34;101427.16;;;22.85;100.00
11987;BME280;6053;51.382;6.768;2022-10-31T11:45:14;101425.78;;;22.82;100.00
11987;BME280;6053;51.382;6.768;2022-10-31T11:47:46;101422.94;;;22.58;100.00
11987;BME280;6053;51.382;6.768;2022-10-31T11:50:20;101431.47;;;22.14;100.00
11987;BME280;6053;51.382;6.768;2022-10-31T11:52:50;101425.06;;;22.43;100.00
11987;BME280;6053;51.382;6.768;2022-10-31T11:55:33;101415.94;;;22.56;100.00
11987;BME280;6053;51.382;6.768;2022-10-31T11:58:01;101424.84;;;22.63;100.00
11987;BME280;6053;51.382;6.768;2022-10-31T12:00:33;101413.84;;;22.67;100.00
11987;BME280;6053;51.382;6.768;2022-10-31T12:03:18;101388.56;;;22.91;100.00
11987;BME280;6053;51.382;6.768;2022-10-31T12:05:56;101388.56;;;23.15;100.00
11987;BME280;6053;51.382;6.768;2022-10-31T12:08:29;101389.63;;;23.19;100.00
11987;BME280;6053;51.382;6.768;2022-10-31T12:11:10;101372.16;;;23.22;100.00
11987;BME280;6053;51.382;6.768;2022-10-31T12:13:54;101369.59;;;23.44;100.00
11987;BME280;6053;51.382;6.768;2022-10-31T12:16:42;101378.72;;;23.55;98.55
11987;BME280;6053;51.382;6.768;2022-10-31T12:19:24;101369.97;;;23.38;100.00
11987;BME280;6053;51.382;6.768;2022-10-31T12:22:08;101361.03;;;23.49;100.00
11987;BME280;6053;51.382;6.768;2022-10-31T12:25:02;101367.34;;;23.60;100.00
11987;BME280;6053;51.382;6.768;2022-10-31T12:28:00;101362.75;;;23.69;100.00
11987;BME280;6053;51.382;6.768;2022-10-31T12:30:46;101351.59;;;23.59;100.00
11987;BME280;6053;51.382;6.768;2022-10-31T12:33:32;101340.13;;;23.74;100.00
11987;BME280;6053;51.382;6.768;2022-10-31T12:36:32;101325.88;;;23.09;99.77
11987;BME280;6053;51.382;6.768;2022-10-31T12:39:25;101331.19;;;22.87;100.00
11987;BME280;6053;51.382;6.768;2022-10-31T12:42:06;101311.88;;;23.04;100.00
11987;BME280;6053;51.382;6.768;2022-10-31T12:45:10;101305.31;;;22.66;100.00
11987;BME280;6053;51.382;6.768;2022-10-31T12:48:07;101302.50;;;22.66;100.00
11987;BME280;6053;51.382;6.768;2022-10-31T12:50:51;101303.19;;;22.57;100.00
11987;BME280;6053;51.382;6.768;2022-10-31T12:53:37;101297.50;;;23.05;100.00
11987;BME280;6053;51.382;6.768;2022-10-31T12:56:29;101292.63;;;23.30;100.00
11987;BME280;6053;51.382;6.768;2022-10-31T12:59:08;101290.28;;;21.98;100.00
11987;BME280;6053;51.382;6.768;2022-10-31T13:01:46;101279.22;;;22.60;100.00
11987;BME280;6053;51.382;6.768;2022-10-31T13:04:19;101265.19;;;22.79;98.65
11987;BME280;6053;51.382;6.768;2022-10-31T13:07:00;101263.41;;;23.07;91.00
11987;BME280;6053;51.382;6.768;2022-10-31T13:09:34;101252.81;;;21.84;100.00
11987;BME280;6053;51.382;6.768;2022-10-31T13:12:09;101247.78;;;22.34;100.00
11987;BME280;6053;51.382;6.768;2022-10-31T13:14:41;101233.72;;;22.77;100.00
11987;BME280;6053;51.382;6.768;2022-10-31T13:17:22;101233.44;;;22.78;97.41
11987;BME280;6053;51.382;6.768;2022-10-31T13:19:57;101214.13;;;23.10;100.00
11987;BME280;6053;51.382;6.768;2022-10-31T13:22:31;101213.06;;;22.68;99.94
11987;BME280;6053;51.382;6.768;2022-10-31T13:25:10;101211.16;;;22.82;97.55